createdAt,value
2018-06-21T00:00:58.894Z,5.27
2018-06-21T00:06:02.123Z,6.83
2018-06-21T00:11:05.281Z,6.43
2018-06-21T00:16:08.438Z,5.97
2018-06-21T00:21:11.615Z,6.23
2018-06-21T00:26:14.747Z,6.40
2018-06-21T00:31:17.930Z,6.30
2018-06-21T00:36:22.161Z,5.43
2018-06-21T00:41:25.445Z,4.80
2018-06-21T00:46:28.611Z,5.10
2018-06-21T00:51:32.839Z,6.30
2018-06-21T00:56:36.022Z,5.20
2018-06-21T01:01:39.281Z,5.30
2018-06-21T01:06:42.464Z,5.73
2018-06-21T01:11:45.625Z,6.77
2018-06-21T01:16:48.882Z,6.40
2018-06-21T01:21:52.054Z,6.40
2018-06-21T01:26:55.202Z,6.63
2018-06-21T01:31:58.390Z,6.73
2018-06-21T01:37:01.536Z,6.80
2018-06-21T01:42:04.713Z,6.53
2018-06-21T01:47:08.982Z,6.23
2018-06-21T01:52:12.154Z,5.93
2018-06-21T01:57:15.302Z,6.80
2018-06-21T02:02:18.458Z,7.10
2018-06-21T02:07:21.690Z,7.10
2018-06-21T02:12:24.936Z,7.87
2018-06-21T02:17:28.148Z,8.13
2018-06-21T02:22:31.627Z,9.43
2018-06-21T02:27:34.818Z,8.60
2018-06-21T02:32:37.986Z,8.10
2018-06-21T02:37:41.162Z,9.27
2018-06-21T02:42:44.338Z,8.63
2018-06-21T02:47:47.517Z,8.40
2018-06-21T02:52:50.711Z,8.23
2018-06-21T02:57:54.277Z,7.70
2018-06-21T03:02:57.498Z,8.87
2018-06-21T03:08:00.672Z,8.50
2018-06-21T03:13:03.851Z,8.80
2018-06-21T03:18:07.010Z,8.67
2018-06-21T03:23:10.175Z,8.83
2018-06-21T03:28:13.397Z,8.03
2018-06-21T03:33:16.565Z,8.60
2018-06-21T03:38:19.870Z,9.03
2018-06-21T03:43:23.028Z,8.90
2018-06-21T03:48:26.257Z,8.60
2018-06-21T03:53:29.526Z,9.33
2018-06-21T03:58:32.942Z,9.63
2018-06-21T04:03:36.123Z,9.63
2018-06-21T04:08:39.302Z,9.47
2018-06-21T04:13:42.472Z,9.43
2018-06-21T04:18:46.122Z,9.33
2018-06-21T04:23:49.287Z,11.03
2018-06-21T04:28:52.458Z,10.20
2018-06-21T04:33:56.616Z,10.93
2018-06-21T04:38:59.834Z,10.40
2018-06-21T04:44:03.171Z,11.03
2018-06-21T04:49:06.330Z,10.10
2018-06-21T04:54:10.439Z,11.07
2018-06-21T04:59:13.622Z,9.70
2018-06-21T05:04:16.850Z,10.83
2018-06-21T05:09:20.014Z,10.10
2018-06-21T05:14:23.181Z,10.27
2018-06-21T05:19:26.473Z,10.90
2018-06-21T05:24:30.163Z,12.70
2018-06-21T05:29:33.402Z,12.77
2018-06-21T05:34:36.645Z,11.67
2018-06-21T05:39:39.826Z,13.53
2018-06-21T05:44:43.070Z,16.87
2018-06-21T05:49:46.243Z,20.23
2018-06-21T05:54:49.407Z,22.30
2018-06-21T05:59:52.571Z,25.50
2018-06-21T06:04:55.743Z,25.73
2018-06-21T06:09:58.915Z,26.90
2018-06-21T06:15:03.000Z,26.37
2018-06-21T06:20:06.197Z,26.27
2018-06-21T06:25:09.314Z,25.13
2018-06-21T06:30:13.029Z,26.17
2018-06-21T06:35:16.187Z,29.47
2018-06-21T06:40:19.492Z,24.20
2018-06-21T06:45:22.642Z,17.70
2018-06-21T06:50:25.826Z,9.60
2018-06-21T06:55:28.976Z,7.87
2018-06-21T07:00:32.243Z,8.77
2018-06-21T07:05:36.763Z,9.03
2018-06-21T07:10:39.950Z,9.73
2018-06-21T07:15:43.555Z,11.00
2018-06-21T07:20:46.783Z,11.27
2018-06-21T07:25:52.427Z,12.73
2018-06-21T07:30:55.785Z,12.77
2018-06-21T07:36:04.699Z,12.97
2018-06-21T07:41:18.759Z,14.63
2018-06-21T07:46:22.597Z,14.10
2018-06-21T07:51:25.883Z,12.47
2018-06-21T07:56:29.046Z,13.00
2018-06-21T08:01:32.246Z,15.40
2018-06-21T08:06:36.536Z,12.67
2018-06-21T08:11:39.694Z,12.40
2018-06-21T08:16:44.442Z,8.20
2018-06-21T08:21:47.623Z,7.17
2018-06-21T08:26:50.877Z,7.37
2018-06-21T08:31:54.947Z,5.03
2018-06-21T08:36:58.132Z,4.33
2018-06-21T08:42:01.286Z,4.60
2018-06-21T08:47:04.502Z,4.10
2018-06-21T08:52:07.723Z,3.70
2018-06-21T08:57:10.866Z,3.27
2018-06-21T09:02:14.043Z,3.03
2018-06-21T09:07:17.214Z,3.03
2018-06-21T09:12:20.409Z,2.90
2018-06-21T09:17:23.591Z,2.03
2018-06-21T09:22:26.762Z,2.20
2018-06-21T09:27:30.169Z,1.60
2018-06-21T09:32:33.342Z,1.40
2018-06-21T09:37:41.915Z,1.00
2018-06-21T09:42:50.630Z,1.20
2018-06-21T09:48:00.158Z,1.10
2018-06-21T09:53:09.970Z,1.37
2018-06-21T09:58:13.139Z,1.57
2018-06-21T10:03:18.379Z,1.40
2018-06-21T10:08:21.571Z,0.97
2018-06-21T10:13:24.758Z,0.60
2018-06-21T10:18:28.003Z,0.90
2018-06-21T10:23:31.185Z,0.90
2018-06-21T10:28:34.444Z,1.10
2018-06-21T10:33:38.741Z,0.93
2018-06-21T10:38:42.027Z,1.00
2018-06-21T10:43:45.301Z,1.30
2018-06-21T10:48:48.590Z,1.40
2018-06-21T10:53:55.035Z,1.40
2018-06-21T10:58:58.326Z,1.50
2018-06-21T11:04:01.495Z,1.20
2018-06-21T11:09:07.122Z,1.50
2018-06-21T11:14:10.366Z,1.23
2018-06-21T11:19:13.599Z,1.10
2018-06-21T11:24:16.854Z,1.00
2018-06-21T11:29:20.104Z,0.93
2018-06-21T11:34:23.361Z,1.17
2018-06-21T11:39:26.536Z,1.00
2018-06-21T11:44:30.856Z,1.13
2018-06-21T11:49:34.026Z,1.30
2018-06-21T11:54:42.650Z,0.90
2018-06-21T11:59:51.869Z,0.63
2018-06-21T12:04:55.103Z,1.03
2018-06-21T12:09:58.482Z,1.37
2018-06-21T12:15:01.739Z,0.93
2018-06-21T12:20:04.902Z,1.00
2018-06-21T12:25:08.097Z,0.53
2018-06-21T12:30:11.314Z,1.13
2018-06-21T12:35:14.522Z,0.40
2018-06-21T12:40:17.730Z,1.07
2018-06-21T12:45:20.974Z,0.80
2018-06-21T12:50:24.150Z,0.90
2018-06-21T12:55:27.298Z,0.80
2018-06-21T13:00:30.701Z,0.80
2018-06-21T13:05:33.840Z,0.80
2018-06-21T13:10:48.419Z,0.97
2018-06-21T13:15:51.674Z,0.80
2018-06-21T13:20:56.026Z,0.80
2018-06-21T13:25:59.851Z,0.70
2018-06-21T13:31:02.998Z,0.80
2018-06-21T13:36:06.197Z,1.10
2018-06-21T13:41:09.360Z,0.70
2018-06-21T13:46:12.519Z,0.93
2018-06-21T13:51:16.701Z,0.73
2018-06-21T13:56:19.879Z,1.07
2018-06-21T14:01:23.325Z,0.90
2018-06-21T14:06:26.514Z,0.80
2018-06-21T14:11:29.686Z,0.80
2018-06-21T14:16:33.049Z,1.10
2018-06-21T14:21:36.309Z,0.53
2018-06-21T14:26:39.985Z,0.80
2018-06-21T14:31:43.174Z,1.00
2018-06-21T14:36:46.432Z,1.47
2018-06-21T14:41:49.618Z,1.00
2018-06-21T14:46:52.776Z,0.60
2018-06-21T14:51:55.962Z,0.57
2018-06-21T14:56:59.264Z,0.80
2018-06-21T15:02:02.584Z,0.40
2018-06-21T15:07:05.791Z,0.70
2018-06-21T15:12:09.023Z,0.60
2018-06-21T15:17:12.218Z,0.67
2018-06-21T15:22:15.367Z,0.83
2018-06-21T15:27:19.145Z,0.60
2018-06-21T15:32:22.430Z,0.77
2018-06-21T15:37:25.726Z,0.87
2018-06-21T15:42:28.955Z,0.43
2018-06-21T15:47:32.168Z,0.73
2018-06-21T15:52:35.366Z,0.70
2018-06-21T15:57:38.744Z,0.50
2018-06-21T16:02:42.834Z,0.43
2018-06-21T16:07:46.048Z,0.80
2018-06-21T16:12:50.235Z,0.43
2018-06-21T16:17:53.395Z,0.80
2018-06-21T16:22:56.622Z,0.67
2018-06-21T16:27:59.705Z,0.80
2018-06-21T16:33:02.634Z,0.70
2018-06-21T16:38:06.094Z,0.50
2018-06-21T16:43:09.303Z,0.63
2018-06-21T16:48:12.503Z,0.67
2018-06-21T16:53:15.699Z,0.77
2018-06-21T16:58:18.878Z,0.60
2018-06-21T17:03:22.035Z,0.53
2018-06-21T17:08:25.221Z,0.30
2018-06-21T17:13:28.575Z,0.30
2018-06-21T17:18:31.735Z,0.20
2018-06-21T17:23:34.910Z,0.20
2018-06-21T17:28:38.803Z,0.33
2018-06-21T17:33:41.966Z,0.30
2018-06-21T17:38:45.143Z,0.30
2018-06-21T17:48:57.732Z,0.47
2018-06-21T17:54:00.907Z,0.30
2018-06-21T17:59:04.076Z,0.40
2018-06-21T18:04:07.276Z,0.53
2018-06-21T18:09:10.960Z,0.70
2018-06-21T18:14:14.204Z,0.33
2018-06-21T18:19:17.398Z,0.70
2018-06-21T18:24:20.613Z,0.93
2018-06-21T18:29:23.786Z,0.70
2018-06-21T18:34:26.957Z,1.00
2018-06-21T18:39:30.095Z,0.87
2018-06-21T18:44:33.352Z,0.90
2018-06-21T18:49:37.375Z,0.73
2018-06-21T18:54:40.606Z,0.50
2018-06-21T18:59:43.842Z,0.77
2018-06-21T19:04:47.074Z,0.80
2018-06-21T19:09:55.550Z,0.73
2018-06-21T19:14:58.740Z,0.73
2018-06-21T19:20:01.899Z,0.50
2018-06-21T19:25:05.110Z,0.40
2018-06-21T19:30:09.255Z,0.70
2018-06-21T19:35:12.402Z,0.63
2018-06-21T19:40:15.568Z,0.60
2018-06-21T19:45:18.807Z,0.60
2018-06-21T19:50:21.993Z,0.97
2018-06-21T19:55:25.191Z,0.70
2018-06-21T20:00:28.367Z,0.63
2018-06-21T20:05:31.598Z,0.50
2018-06-21T20:10:34.767Z,1.10
2018-06-21T20:15:53.950Z,0.90
2018-06-21T20:20:57.140Z,0.57
2018-06-21T20:26:00.359Z,0.60
2018-06-21T20:31:03.842Z,0.73
2018-06-21T20:36:07.025Z,0.80
2018-06-21T20:41:10.674Z,0.93
2018-06-21T20:46:13.842Z,2.53
2018-06-21T20:51:16.993Z,1.07
2018-06-21T20:56:20.132Z,1.00
2018-06-21T21:01:23.262Z,0.93
2018-06-21T21:06:26.415Z,0.90
2018-06-21T21:11:29.542Z,0.90
2018-06-21T21:16:32.695Z,0.80
2018-06-21T21:21:35.914Z,0.80
2018-06-21T21:26:39.146Z,1.00
2018-06-21T21:31:42.313Z,1.10
2018-06-21T21:36:45.452Z,0.70
2018-06-21T21:41:48.590Z,1.00
2018-06-21T21:46:51.726Z,1.03
2018-06-21T21:51:54.870Z,1.07
2018-06-21T21:56:58.002Z,1.00
2018-06-21T22:02:01.150Z,1.43
2018-06-21T22:07:04.835Z,1.17
2018-06-21T22:12:08.309Z,1.60
2018-06-21T22:17:11.438Z,1.57
2018-06-21T22:22:14.598Z,1.83
2018-06-21T22:27:17.710Z,1.40
2018-06-21T22:32:20.868Z,1.63
2018-06-21T22:37:24.019Z,1.77
2018-06-21T22:42:27.207Z,2.03
2018-06-21T22:47:30.416Z,1.83
2018-06-21T22:52:33.613Z,1.77
2018-06-21T22:57:36.804Z,1.27
2018-06-21T23:02:39.887Z,1.80
2018-06-21T23:07:43.038Z,2.33
2018-06-21T23:12:46.199Z,1.63
2018-06-21T23:17:49.344Z,1.70
2018-06-21T23:22:53.506Z,2.03
2018-06-21T23:27:56.679Z,1.50
2018-06-21T23:32:59.821Z,1.37
2018-06-21T23:38:02.946Z,1.83
2018-06-21T23:43:06.146Z,1.80
2018-06-21T23:48:09.318Z,1.93
2018-06-21T23:53:12.495Z,1.50
2018-06-21T23:58:15.637Z,1.77
